»·PEaware :: UAL2303 KIAD-KSAN

UAL2303 :: KIAD-KSAN

FLIGHT INFORMATION

Flight Status: Arrived
Operator:
United Airlines
More flights by this operator :: More flights under this callsign
Pilot: Jac C. (16067)
Aircraft: BOEING 737-900
(B739)
More flights by this aircraft type
Origin: KIAD Washington Dulles Intl
United States
Destination: KSAN San Diego Intl-Lindbergh
United States
More flights between these airports :: More routes between these airports
Route: +BUNZZ3 RAMAY Q72 HACKS J149 ROD VHP J24 TILMN KK54K ELSTO KK45E/N0457F360 OGSAE KA33Y KA30W ONM KA21Q KA18O HOGGZ LUCKI1
File this flight plan on PilotEdge
Remarks: PBN / A1B1C1D1S1S2 DOF / 180721 REG / N66841 EET / KZID0023 KZKC0113 KZAB0237 KZLA0410 OPR / UAL PER / D RMK / TCAS SIMBRIEF
Altitude:
(Current/Filed)
34,000ft
Speed:
(Current/Filed)
455kts
Departed: 21-Jul-18 02:15 PM
Arrived: 21-Jul-18 04:30 PM
Distance/Time
Traveled:
1953nm/2:14
Distance/Time
To Go:
Arrived

Flight Plot

Page will automatically refresh every two minutes.

Flight plan parsing failed; only flown route is shown


Map Options




Map Legend


Flown Route
Filed Route
Departure Airport
Arrival Airport
Navaid (VOR, NDB)
Fix

Horizontal Profiles

Position Reports

Time Latitude Longitude Heading Altitude Ground
Speed
21-Jul-18 14:15 36.589787 -99.015964 247 36077ft 445kts
21-Jul-18 14:16 36.535363 -99.153650 247 36110ft 444kts
21-Jul-18 14:17 36.481196 -99.291069 247 36109ft 443kts
21-Jul-18 14:18 36.428453 -99.425267 247 36109ft 443kts
21-Jul-18 14:19 36.374951 -99.561764 247 36108ft 443kts
21-Jul-18 14:20 36.322026 -99.697155 247 36106ft 444kts
21-Jul-18 14:21 36.268450 -99.834556 247 36094ft 443kts
21-Jul-18 14:22 36.221187 -99.956083 247 36093ft 443kts
21-Jul-18 14:23 36.171984 -100.082894 247 36092ft 443kts
21-Jul-18 14:24 36.118904 -100.220023 247 36071ft 443kts
21-Jul-18 14:25 36.067928 -100.358274 250 36055ft 442kts
21-Jul-18 14:26 36.020665 -100.498230 250 36055ft 442kts
21-Jul-18 14:27 35.973161 -100.638353 250 36058ft 442kts
21-Jul-18 14:28 35.925943 -100.776988 250 36083ft 443kts
21-Jul-18 14:29 35.878987 -100.914293 249 36114ft 441kts
21-Jul-18 14:30 35.831316 -101.053117 248 36127ft 441kts
21-Jul-18 14:31 35.784883 -101.187664 248 36112ft 441kts
21-Jul-18 14:32 35.739014 -101.320015 248 36099ft 441kts
21-Jul-18 14:33 35.692874 -101.452594 248 36098ft 441kts
21-Jul-18 14:34 35.644520 -101.590937 248 36105ft 441kts
21-Jul-18 14:35 35.596236 -101.728456 248 36133ft 441kts
21-Jul-18 14:36 35.555738 -101.843307 248 36143ft 441kts
21-Jul-18 14:37 35.506879 -101.981317 248 36133ft 441kts
21-Jul-18 14:38 35.463611 -102.147437 255 36138ft 439kts
21-Jul-18 14:39 35.427992 -102.290762 254 36149ft 439kts
21-Jul-18 14:40 35.391707 -102.433425 254 36160ft 439kts
21-Jul-18 14:41 35.361394 -102.552389 254 36163ft 439kts
21-Jul-18 14:42 35.325216 -102.694820 254 36166ft 439kts
21-Jul-18 14:43 35.289178 -102.837287 254 36158ft 439kts
21-Jul-18 14:44 35.253284 -102.979861 254 36147ft 439kts
21-Jul-18 14:45 35.217600 -103.122321 253 36146ft 438kts
21-Jul-18 14:46 35.181910 -103.265350 253 36146ft 442kts
21-Jul-18 14:47 35.146157 -103.409231 253 36128ft 443kts
21-Jul-18 14:48 35.110703 -103.552575 253 36128ft 443kts
21-Jul-18 14:49 35.075758 -103.694469 253 36128ft 443kts
21-Jul-18 14:50 35.040992 -103.836186 253 36128ft 443kts
21-Jul-18 14:51 35.005887 -103.979906 253 36136ft 441kts
21-Jul-18 14:52 34.972722 -104.123503 253 36169ft 442kts
21-Jul-18 14:53 34.938158 -104.267212 252 36181ft 444kts
21-Jul-18 14:54 34.902991 -104.411548 252 36182ft 448kts
21-Jul-18 14:55 34.867905 -104.556092 252 36184ft 451kts
21-Jul-18 14:56 34.836508 -104.686041 252 36182ft 450kts
21-Jul-18 14:57 34.805973 -104.812952 252 36183ft 451kts
21-Jul-18 14:58 34.771068 -104.958716 252 36183ft 451kts
21-Jul-18 14:59 34.736200 -105.105041 252 36183ft 451kts
21-Jul-18 15:00 34.701480 -105.251421 252 36183ft 451kts
21-Jul-18 15:01 34.667076 -105.397204 252 36184ft 451kts
21-Jul-18 15:02 34.632885 -105.543572 253 36184ft 451kts
21-Jul-18 15:03 34.601149 -105.684558 252 36189ft 451kts
21-Jul-18 15:04 34.568172 -105.830344 252 36207ft 451kts
21-Jul-18 15:05 34.534813 -105.976926 252 36220ft 451kts
21-Jul-18 15:06 34.501460 -106.122598 252 36209ft 451kts
21-Jul-18 15:07 34.467888 -106.268345 252 36196ft 451kts
21-Jul-18 15:08 34.434099 -106.414156 252 36183ft 451kts
21-Jul-18 15:09 34.400062 -106.560173 252 36177ft 451kts
21-Jul-18 15:10 34.367922 -106.697290 252 36174ft 451kts
21-Jul-18 15:11 34.333546 -106.842807 251 36175ft 450kts
21-Jul-18 15:12 34.297822 -106.986331 250 36174ft 447kts
21-Jul-18 15:13 34.261848 -107.129741 250 36174ft 445kts
21-Jul-18 15:14 34.225762 -107.272743 250 36174ft 446kts
21-Jul-18 15:15 34.189556 -107.415463 250 36174ft 446kts
21-Jul-18 15:16 34.153149 -107.558200 250 36174ft 446kts
21-Jul-18 15:17 34.119276 -107.690333 250 36173ft 446kts
21-Jul-18 15:18 34.083079 -107.830804 250 36198ft 445kts
21-Jul-18 15:19 34.046246 -107.973005 250 36253ft 446kts
21-Jul-18 15:20 34.009251 -108.115103 250 36282ft 445kts
21-Jul-18 15:21 33.972096 -108.257086 250 36335ft 445kts
21-Jul-18 15:22 33.934855 -108.398667 250 36337ft 445kts
21-Jul-18 15:23 33.898217 -108.537258 250 36338ft 445kts
21-Jul-18 15:24 33.862746 -108.670771 249 36342ft 445kts
21-Jul-18 15:25 33.825263 -108.811150 249 36341ft 445kts
21-Jul-18 15:26 33.787372 -108.952336 249 36341ft 445kts
21-Jul-18 15:27 33.749077 -109.094244 249 36342ft 451kts
21-Jul-18 15:28 33.710048 -109.238113 250 36341ft 454kts
21-Jul-18 15:29 33.670915 -109.381699 250 36341ft 453kts
21-Jul-18 15:30 33.631637 -109.525061 250 36341ft 453kts
21-Jul-18 15:31 33.593552 -109.663360 249 36338ft 453kts
21-Jul-18 15:32 33.562250 -109.776552 249 36271ft 453kts
21-Jul-18 15:33 33.524230 -109.913419 249 36193ft 453kts
21-Jul-18 15:34 33.487189 -110.051030 252 36132ft 454kts
21-Jul-18 15:35 33.451950 -110.195505 251 36088ft 454kts
21-Jul-18 15:36 33.415520 -110.340068 251 36198ft 454kts
21-Jul-18 15:37 33.379069 -110.483104 251 36169ft 454kts
21-Jul-18 15:38 33.342393 -110.627278 251 36056ft 454kts
21-Jul-18 15:39 33.311056 -110.750954 251 36037ft 454kts
21-Jul-18 15:40 33.275756 -110.890821 251 36037ft 454kts
21-Jul-18 15:41 33.239627 -111.034657 250 36038ft 451kts
21-Jul-18 15:42 33.204661 -111.174380 250 36036ft 446kts
21-Jul-18 15:43 33.169303 -111.316206 250 36036ft 448kts
21-Jul-18 15:44 33.134138 -111.457934 250 36036ft 447kts
21-Jul-18 15:45 33.099046 -111.599985 250 36036ft 448kts
21-Jul-18 15:46 33.065489 -111.736378 250 36025ft 450kts
21-Jul-18 15:47 33.030423 -111.879425 249 36003ft 454kts
21-Jul-18 15:48 32.998623 -112.021068 258 36017ft 460kts
21-Jul-18 15:49 32.982829 -112.172560 259 36002ft 462kts
21-Jul-18 15:50 32.967231 -112.324717 259 35983ft 464kts
21-Jul-18 15:51 32.951415 -112.477099 259 35981ft 465kts
21-Jul-18 15:52 32.935406 -112.629519 259 35981ft 464kts
21-Jul-18 15:53 32.919805 -112.776561 258 35977ft 464kts
21-Jul-18 15:54 32.903528 -112.928284 258 35978ft 465kts
21-Jul-18 15:55 32.887592 -113.075112 258 35987ft 467kts
21-Jul-18 15:56 32.870821 -113.227836 258 35988ft 466kts
21-Jul-18 15:57 32.853841 -113.380607 258 35988ft 466kts
21-Jul-18 15:58 32.836704 -113.533063 258 35989ft 466kts
21-Jul-18 15:59 32.819836 -113.681445 257 35951ft 466kts
21-Jul-18 16:00 32.802393 -113.833538 257 35930ft 466kts
21-Jul-18 16:01 32.784741 -113.985729 257 35931ft 466kts
21-Jul-18 16:02 32.776841 -114.139740 268 35926ft 473kts
21-Jul-18 16:03 32.783160 -114.295585 268 35932ft 472kts
21-Jul-18 16:04 32.802425 -114.447233 285 35932ft 481kts
21-Jul-18 16:05 32.842278 -114.590329 285 35934ft 480kts
21-Jul-18 16:06 32.875972 -114.735631 268 35928ft 456kts
21-Jul-18 16:07 32.875016 -114.878947 263 35942ft 435kts
21-Jul-18 16:08 32.871931 -115.023040 263 35794ft 435kts
21-Jul-18 16:09 32.868632 -115.165241 264 32829ft 445kts
21-Jul-18 16:10 32.865081 -115.309409 264 29768ft 452kts
21-Jul-18 16:11 32.849166 -115.455759 257 26433ft 451kts
21-Jul-18 16:12 32.827739 -115.593596 256 24312ft 425kts
21-Jul-18 16:13 32.806952 -115.720013 255 22401ft 403kts
21-Jul-18 16:14 32.786325 -115.844809 256 20520ft 383kts
21-Jul-18 16:15 32.775997 -115.968234 262 18659ft 368kts
21-Jul-18 16:16 32.767142 -116.086137 262 16852ft 355kts
21-Jul-18 16:17 32.758464 -116.200129 263 15155ft 342kts
21-Jul-18 16:18 32.750678 -116.301206 263 13711ft 334kts
21-Jul-18 16:19 32.742178 -116.410613 263 12096ft 328kts
21-Jul-18 16:20 32.733784 -116.516466 262 10522ft 318kts
21-Jul-18 16:21 32.724104 -116.617334 262 8980ft 310kts
21-Jul-18 16:22 32.715823 -116.710643 263 7566ft 277kts
21-Jul-18 16:23 32.709165 -116.795551 263 6377ft 238kts
21-Jul-18 16:24 32.693253 -116.867336 249 5165ft 225kts
21-Jul-18 16:25 32.674431 -116.933090 266 4281ft 198kts
21-Jul-18 16:26 32.685811 -116.992789 285 3197ft 172kts
21-Jul-18 16:27 32.697777 -117.043026 285 2473ft 156kts
21-Jul-18 16:28 32.708533 -117.087895 286 1638ft 134kts
21-Jul-18 16:29 32.718795 -117.129090 286 1069ft 136kts
21-Jul-18 16:30 32.729277 -117.172302 287 258ft 139kts
21-Jul-18 16:31 32.736273 -117.201038 273 23ft 18kts
21-Jul-18 16:32 32.735220 -117.201161 93 23ft 11kts
21-Jul-18 16:33 32.732878 -117.199588 151 24ft 4kts
21-Jul-18 16:34 32.732322 -117.199477 182 25ft 0kts
21-Jul-18 16:35 32.732322 -117.199477 182 25ft 0kts
21-Jul-18 16:36 32.732322 -117.199477 182 25ft 0kts

Navigation Log

Ident Type
Flight plan parsing failed, navigation log unavailable